createdAt,value
2022-12-12T00:00:22.485Z,27.80
2022-12-12T00:01:04.293Z,27.70
2022-12-12T00:01:41.084Z,27.74
2022-12-12T00:02:17.850Z,27.87
2022-12-12T00:02:53.338Z,27.59
2022-12-12T00:03:29.528Z,27.74
2022-12-12T00:04:05.994Z,27.63
2022-12-12T00:04:46.390Z,27.72
2022-12-12T00:05:22.130Z,27.72
2022-12-12T00:05:58.598Z,27.61
2022-12-12T00:06:34.225Z,27.77
2022-12-12T00:07:10.378Z,27.68
2022-12-12T00:07:46.690Z,27.86
2022-12-12T00:08:22.527Z,27.72
2022-12-12T00:08:58.440Z,27.80
2022-12-12T00:09:33.773Z,27.71
2022-12-12T00:10:09.493Z,27.60
2022-12-12T00:10:45.391Z,27.85
2022-12-12T00:11:20.646Z,27.73
2022-12-12T00:11:56.573Z,27.69
2022-12-12T00:12:32.682Z,27.75
2022-12-12T00:13:08.409Z,27.60
2022-12-12T00:13:44.398Z,27.61
2022-12-12T00:14:20.507Z,27.58
2022-12-12T00:14:56.227Z,27.71
2022-12-12T00:15:32.750Z,27.74
2022-12-12T00:16:08.104Z,27.80
2022-12-12T00:16:43.788Z,27.80
2022-12-12T00:17:19.217Z,27.76
2022-12-12T00:17:55.605Z,27.84
2022-12-12T00:18:32.619Z,27.79
2022-12-12T00:19:07.796Z,27.67
2022-12-12T00:19:44.295Z,27.74
2022-12-12T00:20:20.915Z,27.68
2022-12-12T00:20:57.044Z,27.68
2022-12-12T00:21:32.896Z,27.82
2022-12-12T00:22:09.420Z,27.62
2022-12-12T00:22:45.674Z,27.74
2022-12-12T00:23:21.256Z,27.75
2022-12-12T00:23:56.690Z,27.69
2022-12-12T00:24:33.668Z,27.72
2022-12-12T00:25:10.208Z,27.76
2022-12-12T00:25:46.141Z,27.64
2022-12-12T00:26:22.351Z,27.77
2022-12-12T00:26:58.191Z,27.96
2022-12-12T00:27:34.893Z,27.70
2022-12-12T00:28:10.651Z,27.86
2022-12-12T00:28:46.655Z,27.94
2022-12-12T00:29:22.320Z,27.85
2022-12-12T00:29:58.852Z,28.10
2022-12-12T00:30:35.774Z,28.12
2022-12-12T00:31:12.193Z,27.98
2022-12-12T00:31:47.989Z,28.12
2022-12-12T00:32:24.938Z,27.99
2022-12-12T00:33:01.045Z,28.17
2022-12-12T00:33:37.350Z,28.05
2022-12-12T00:34:13.218Z,28.00
2022-12-12T00:34:50.628Z,28.14
2022-12-12T00:35:26.503Z,28.16
2022-12-12T00:36:02.414Z,27.99
2022-12-12T00:36:38.275Z,28.15
2022-12-12T00:37:13.828Z,28.04
2022-12-12T00:37:52.776Z,28.13
2022-12-12T00:38:29.065Z,28.13
2022-12-12T00:39:05.031Z,28.09
2022-12-12T00:39:41.150Z,27.74
2022-12-12T00:40:16.539Z,28.07
2022-12-12T00:42:27.140Z,27.96
2022-12-12T00:43:03.013Z,28.24
2022-12-12T00:43:40.853Z,28.21
2022-12-12T00:44:17.186Z,28.13
2022-12-12T00:44:53.427Z,28.15
2022-12-12T00:45:40.077Z,28.03
2022-12-12T00:46:15.755Z,28.34
2022-12-12T00:46:51.822Z,28.10
2022-12-12T00:47:27.592Z,28.22
2022-12-12T00:48:03.771Z,28.04
2022-12-12T00:48:39.192Z,28.04
2022-12-12T00:49:15.559Z,28.19
2022-12-12T00:49:51.414Z,28.22
2022-12-12T00:50:27.303Z,28.18
2022-12-12T00:51:03.173Z,28.09
2022-12-12T00:51:39.224Z,28.16
2022-12-12T00:52:21.565Z,28.20
2022-12-12T00:52:57.252Z,28.16
2022-12-12T00:54:25.724Z,28.15
2022-12-12T00:55:01.147Z,28.06
2022-12-12T00:55:37.370Z,28.19
2022-12-12T00:56:12.962Z,28.05
2022-12-12T00:56:49.079Z,28.21
2022-12-12T00:57:25.103Z,28.11
2022-12-12T00:58:01.140Z,28.24
2022-12-12T00:58:38.091Z,28.13
2022-12-12T00:59:14.565Z,28.07
2022-12-12T00:59:50.314Z,28.10
2022-12-12T01:00:26.154Z,28.16
2022-12-12T01:01:03.904Z,28.08
2022-12-12T01:01:46.405Z,28.15
2022-12-12T01:02:27.796Z,28.10
2022-12-12T01:03:03.455Z,28.30
2022-12-12T01:03:39.460Z,28.08
2022-12-12T01:04:15.409Z,27.99
2022-12-12T01:04:51.190Z,28.21
2022-12-12T01:05:27.409Z,28.08
2022-12-12T01:06:02.651Z,28.08
2022-12-12T01:06:44.793Z,28.04
2022-12-12T01:07:55.781Z,28.03
2022-12-12T01:08:31.771Z,28.10
2022-12-12T01:09:07.404Z,28.06
2022-12-12T01:10:29.609Z,28.04
2022-12-12T01:11:05.474Z,28.21
2022-12-12T01:11:42.383Z,28.26
2022-12-12T01:13:14.427Z,28.24
2022-12-12T01:14:00.046Z,28.20
2022-12-12T01:14:45.095Z,28.28
2022-12-12T01:15:28.571Z,28.22
2022-12-12T01:16:11.239Z,28.21
2022-12-12T01:16:56.245Z,28.17
2022-12-12T01:17:40.219Z,28.16
2022-12-12T01:18:22.292Z,28.27
2022-12-12T01:19:09.461Z,28.25
2022-12-12T01:19:52.120Z,28.21
2022-12-12T01:20:35.067Z,28.19
2022-12-12T01:21:21.426Z,28.16
2022-12-12T01:22:04.616Z,28.13
2022-12-12T01:22:52.386Z,28.23
2022-12-12T01:23:34.029Z,28.18
2022-12-12T01:24:20.855Z,28.25
2022-12-12T01:25:04.789Z,28.29
2022-12-12T01:26:32.828Z,28.16
2022-12-12T01:27:59.916Z,28.33
2022-12-12T01:28:54.017Z,28.17
2022-12-12T01:29:36.626Z,28.19
2022-12-12T01:30:18.536Z,28.23
2022-12-12T01:31:01.576Z,28.22
2022-12-12T01:31:43.777Z,28.09
2022-12-12T01:32:26.563Z,28.23
2022-12-12T01:33:14.783Z,28.19
2022-12-12T01:34:50.154Z,27.99
2022-12-12T01:35:34.890Z,28.21
2022-12-12T01:36:18.604Z,28.06
2022-12-12T01:37:02.239Z,28.28
2022-12-12T01:37:44.413Z,28.19
2022-12-12T01:38:28.459Z,28.23
2022-12-12T01:40:00.769Z,28.16
2022-12-12T01:40:45.241Z,28.11
2022-12-12T01:42:16.687Z,28.04
2022-12-12T01:43:00.252Z,28.09
2022-12-12T01:43:42.556Z,28.13
2022-12-12T01:44:24.417Z,28.16
2022-12-12T01:45:08.693Z,28.18
2022-12-12T01:45:51.050Z,28.12
2022-12-12T01:46:36.724Z,28.18
2022-12-12T01:47:19.990Z,28.15
2022-12-12T01:49:30.476Z,28.00
2022-12-12T01:50:13.307Z,28.12
2022-12-12T01:50:55.874Z,28.23
2022-12-12T01:51:40.684Z,28.11
2022-12-12T01:52:26.263Z,28.20
2022-12-12T01:53:19.890Z,28.09
2022-12-12T01:54:04.597Z,28.12
2022-12-12T01:54:50.362Z,28.12
2022-12-12T01:55:32.750Z,28.17
2022-12-12T01:56:14.757Z,28.09
2022-12-12T01:56:59.737Z,28.22
2022-12-12T01:57:43.904Z,28.13
2022-12-12T01:58:30.597Z,28.16
2022-12-12T01:59:16.108Z,28.06
2022-12-12T02:00:52.503Z,27.99
2022-12-12T02:01:39.728Z,28.20
2022-12-12T02:02:26.624Z,27.88
2022-12-12T02:03:11.284Z,27.96
2022-12-12T02:03:54.591Z,27.90
2022-12-12T02:04:38.456Z,27.85
2022-12-12T02:05:19.557Z,28.08
2022-12-12T02:06:02.936Z,27.90
2022-12-12T02:06:44.827Z,27.79
2022-12-12T02:07:41.357Z,27.86
2022-12-12T02:08:25.308Z,27.89
2022-12-12T02:09:06.553Z,27.80
2022-12-12T02:09:50.833Z,27.63
2022-12-12T02:10:35.362Z,27.87
2022-12-12T02:11:23.388Z,27.70
2022-12-12T02:12:04.543Z,27.63
2022-12-12T02:12:57.758Z,27.69
2022-12-12T02:13:39.902Z,27.71
2022-12-12T02:14:23.180Z,27.74
2022-12-12T02:15:05.325Z,27.63
2022-12-12T02:15:47.988Z,27.73
2022-12-12T02:16:31.560Z,27.85
2022-12-12T02:17:20.584Z,27.63
2022-12-12T02:18:03.838Z,27.74
2022-12-12T02:18:45.535Z,27.66
2022-12-12T02:19:28.316Z,27.72
2022-12-12T02:20:11.211Z,27.69
2022-12-12T02:20:56.376Z,27.67
2022-12-12T02:21:39.445Z,27.52
2022-12-12T02:22:22.217Z,27.68
2022-12-12T02:23:07.284Z,27.54
2022-12-12T02:23:50.618Z,27.80
2022-12-12T02:24:34.822Z,27.68
2022-12-12T02:25:18.998Z,27.49
2022-12-12T02:26:03.096Z,27.55
2022-12-12T02:26:46.173Z,27.54
2022-12-12T02:27:30.249Z,27.55
2022-12-12T02:28:14.530Z,27.72
2022-12-12T02:28:58.753Z,27.56
2022-12-12T02:29:43.221Z,27.73
2022-12-12T02:30:26.565Z,27.79
2022-12-12T02:31:10.365Z,27.62
2022-12-12T02:31:53.031Z,27.65
2022-12-12T02:32:45.205Z,27.55
2022-12-12T02:33:28.424Z,27.65
2022-12-12T02:34:16.632Z,27.65
2022-12-12T02:35:00.212Z,27.56
2022-12-12T02:35:45.760Z,27.59
2022-12-12T02:36:33.496Z,27.64
2022-12-12T02:37:18.613Z,27.58
2022-12-12T02:38:00.789Z,27.65
2022-12-12T02:38:47.010Z,27.56
2022-12-12T02:39:29.621Z,27.60
2022-12-12T02:40:14.406Z,27.56
2022-12-12T02:40:57.784Z,27.55
2022-12-12T02:41:40.523Z,27.72
2022-12-12T02:42:25.977Z,27.49
2022-12-12T02:43:08.423Z,27.54
2022-12-12T02:43:51.892Z,27.54
2022-12-12T02:44:34.559Z,27.62
2022-12-12T02:45:17.745Z,27.71
2022-12-12T02:46:01.680Z,27.71
2022-12-12T02:46:45.152Z,27.48
2022-12-12T02:47:30.823Z,27.64
2022-12-12T02:48:11.742Z,27.64
2022-12-12T02:48:54.761Z,27.73
2022-12-12T02:49:37.793Z,27.72
2022-12-12T02:50:20.448Z,27.53
2022-12-12T02:51:04.177Z,27.72
2022-12-12T02:51:49.039Z,27.50
2022-12-12T02:52:36.950Z,27.77
2022-12-12T02:53:19.931Z,27.77
2022-12-12T02:54:03.899Z,27.73
2022-12-12T02:54:50.154Z,27.71
2022-12-12T02:55:36.559Z,27.71
2022-12-12T02:56:17.759Z,27.76
2022-12-12T02:57:03.684Z,27.70
2022-12-12T02:57:47.911Z,27.56
2022-12-12T02:58:31.093Z,27.65
2022-12-12T02:59:14.264Z,27.66
2022-12-12T02:59:58.264Z,27.69
2022-12-12T03:00:52.035Z,27.61
2022-12-12T03:01:36.783Z,27.78
2022-12-12T03:02:18.024Z,27.63
2022-12-12T03:03:02.713Z,27.68
2022-12-12T03:03:44.967Z,27.77
2022-12-12T03:04:30.107Z,27.71
2022-12-12T03:05:16.516Z,27.75
2022-12-12T03:06:00.707Z,27.71
2022-12-12T03:06:46.670Z,27.58
2022-12-12T03:07:30.902Z,27.71
2022-12-12T03:08:14.013Z,27.74
2022-12-12T03:08:58.935Z,27.73
2022-12-12T03:09:40.917Z,27.62
2022-12-12T03:10:24.814Z,27.72
2022-12-12T03:11:09.953Z,27.71
2022-12-12T03:11:55.657Z,27.66
2022-12-12T03:12:41.366Z,27.53
2022-12-12T03:13:31.734Z,27.71
2022-12-12T03:14:13.331Z,27.72
2022-12-12T03:14:59.139Z,27.63
2022-12-12T03:15:42.331Z,27.72
2022-12-12T03:16:26.575Z,27.68
2022-12-12T03:17:10.855Z,27.69
2022-12-12T03:17:54.087Z,27.72
2022-12-12T03:18:38.707Z,27.77
2022-12-12T03:19:19.885Z,27.70
2022-12-12T03:20:02.632Z,27.75
2022-12-12T03:20:46.284Z,27.52
2022-12-12T03:21:28.906Z,27.67
2022-12-12T03:22:14.010Z,27.73
2022-12-12T03:22:57.113Z,27.69
2022-12-12T03:23:43.478Z,27.61
2022-12-12T03:24:27.914Z,27.58
2022-12-12T03:25:09.571Z,27.62
2022-12-12T03:25:57.722Z,27.70
2022-12-12T03:26:42.886Z,27.69
2022-12-12T03:27:26.905Z,27.73
2022-12-12T03:28:08.751Z,27.80
2022-12-12T03:28:56.179Z,27.76
2022-12-12T03:29:38.989Z,27.70
2022-12-12T03:30:23.818Z,27.69
2022-12-12T03:31:08.476Z,27.81
2022-12-12T03:31:53.363Z,27.65
2022-12-12T03:32:37.144Z,27.80
2022-12-12T03:33:24.190Z,27.80
2022-12-12T03:34:09.484Z,27.61
2022-12-12T03:34:54.503Z,27.71
2022-12-12T03:35:37.851Z,27.75
2022-12-12T03:36:22.008Z,27.78
2022-12-12T03:37:06.276Z,27.69
2022-12-12T03:37:51.012Z,27.72
2022-12-12T03:38:36.769Z,27.79
2022-12-12T03:39:19.709Z,27.72
2022-12-12T03:40:01.254Z,27.63
2022-12-12T03:40:46.790Z,27.60
2022-12-12T03:41:31.926Z,27.64
2022-12-12T03:42:15.525Z,27.76
2022-12-12T03:42:58.808Z,27.73
2022-12-12T03:43:41.320Z,27.73
2022-12-12T03:44:25.226Z,27.77
2022-12-12T03:45:12.757Z,27.77
2022-12-12T03:45:58.126Z,27.55
2022-12-12T03:52:45.736Z,27.73
2022-12-12T03:53:16.920Z,27.76
2022-12-12T03:53:48.184Z,27.63
2022-12-12T03:54:19.584Z,27.80
2022-12-12T03:54:50.948Z,27.63
2022-12-12T03:55:22.346Z,27.81
2022-12-12T03:55:53.797Z,27.80
2022-12-12T03:56:25.174Z,27.78
2022-12-12T03:56:56.584Z,27.69
2022-12-12T03:57:27.975Z,27.56
2022-12-12T03:57:59.375Z,27.58
2022-12-12T03:58:30.750Z,27.76
2022-12-12T03:59:02.115Z,27.73
2022-12-12T03:59:33.513Z,27.62
2022-12-12T04:00:04.923Z,27.68
2022-12-12T04:00:36.292Z,27.73
2022-12-12T04:01:07.728Z,27.80
2022-12-12T04:01:39.180Z,27.70
2022-12-12T04:02:10.581Z,27.77
2022-12-12T04:02:42.084Z,27.65
2022-12-12T04:03:13.571Z,27.69
2022-12-12T04:03:44.957Z,27.69
2022-12-12T04:04:16.340Z,27.70
2022-12-12T04:04:47.761Z,27.59
2022-12-12T04:05:19.165Z,27.67
2022-12-12T04:05:50.550Z,27.69
2022-12-12T04:06:21.976Z,27.66
2022-12-12T04:06:53.445Z,27.58
2022-12-12T04:07:24.827Z,27.80
2022-12-12T04:07:56.416Z,27.70
2022-12-12T04:08:27.919Z,27.68
2022-12-12T04:08:59.362Z,27.71
2022-12-12T04:09:30.784Z,27.80
2022-12-12T04:10:02.184Z,27.73
2022-12-12T04:10:33.588Z,27.76
2022-12-12T04:11:04.950Z,27.72
2022-12-12T04:11:36.359Z,27.67
2022-12-12T04:12:07.811Z,27.68
2022-12-12T04:12:39.237Z,27.68
2022-12-12T04:13:10.643Z,27.70
2022-12-12T04:13:42.052Z,27.71
2022-12-12T04:14:13.502Z,27.74
2022-12-12T04:14:44.938Z,27.56
2022-12-12T04:15:16.450Z,27.71
2022-12-12T04:15:47.933Z,27.56
2022-12-12T04:16:19.404Z,27.73
2022-12-12T04:16:50.882Z,27.81
2022-12-12T04:17:22.243Z,27.81
2022-12-12T04:17:53.656Z,27.62
2022-12-12T04:18:25.103Z,27.68
2022-12-12T04:18:56.506Z,27.70
2022-12-12T04:19:27.920Z,27.74
2022-12-12T04:19:59.386Z,27.72
2022-12-12T04:20:30.835Z,27.74
2022-12-12T04:21:02.232Z,27.76
2022-12-12T04:21:33.648Z,27.73
2022-12-12T04:22:05.061Z,27.74
2022-12-12T04:22:36.379Z,27.58
2022-12-12T04:23:07.799Z,27.77
2022-12-12T04:23:39.284Z,27.49
2022-12-12T04:24:10.670Z,27.60
2022-12-12T04:24:42.030Z,27.66
2022-12-12T04:25:13.617Z,27.78
2022-12-12T04:25:45.271Z,27.69
2022-12-12T04:26:16.691Z,27.79
2022-12-12T04:26:48.055Z,27.81
2022-12-12T04:27:19.433Z,27.79
2022-12-12T04:27:50.826Z,27.54
2022-12-12T04:28:22.295Z,27.66
2022-12-12T04:28:53.839Z,27.66
2022-12-12T04:29:25.295Z,27.70
2022-12-12T04:29:56.688Z,27.83
2022-12-12T04:30:28.064Z,27.77
2022-12-12T04:30:59.452Z,27.77
2022-12-12T04:31:30.878Z,27.90
2022-12-12T04:32:02.338Z,27.60
2022-12-12T04:32:33.895Z,27.89
2022-12-12T04:33:05.327Z,27.61
2022-12-12T04:33:36.727Z,27.64
2022-12-12T04:34:08.210Z,27.72
2022-12-12T04:34:39.635Z,27.67
2022-12-12T04:35:11.267Z,27.66
2022-12-12T04:35:42.923Z,27.68
2022-12-12T04:36:14.320Z,27.70
2022-12-12T04:36:45.698Z,27.79
2022-12-12T04:37:17.084Z,27.72
2022-12-12T04:37:48.497Z,27.69
2022-12-12T04:38:19.890Z,27.76
2022-12-12T04:38:51.253Z,27.63
2022-12-12T04:39:22.727Z,27.67
2022-12-12T04:39:54.261Z,27.78
2022-12-12T04:40:25.700Z,27.62
2022-12-12T04:40:57.103Z,27.70
2022-12-12T04:41:28.510Z,27.51
2022-12-12T04:41:59.976Z,27.73
2022-12-12T04:42:31.346Z,27.71
2022-12-12T04:43:02.700Z,27.76
2022-12-12T04:43:34.104Z,27.80
2022-12-12T04:44:05.523Z,27.75
2022-12-12T04:44:36.931Z,27.61
2022-12-12T04:45:08.354Z,27.80
2022-12-12T04:45:39.760Z,27.60
2022-12-12T04:46:11.198Z,27.59
2022-12-12T04:46:42.576Z,27.76
2022-12-12T04:47:14.015Z,27.67
2022-12-12T04:47:45.448Z,27.71
2022-12-12T04:48:16.814Z,27.77
2022-12-12T04:48:50.701Z,27.66
2022-12-12T04:49:24.765Z,27.54
2022-12-12T04:49:56.278Z,27.71
2022-12-12T04:50:27.679Z,27.71
2022-12-12T04:50:59.066Z,27.76
2022-12-12T04:51:30.570Z,27.78
2022-12-12T04:52:01.978Z,27.83
2022-12-12T04:52:33.359Z,27.76
2022-12-12T04:53:04.730Z,27.69
2022-12-12T04:53:36.161Z,27.85
2022-12-12T04:54:07.622Z,27.70
2022-12-12T04:54:39.019Z,27.67
2022-12-12T04:55:10.710Z,27.74
2022-12-12T04:55:42.310Z,27.79
2022-12-12T04:56:13.718Z,27.79
2022-12-12T04:56:45.109Z,27.58
2022-12-12T04:57:16.452Z,27.66
2022-12-12T04:57:47.887Z,27.82
2022-12-12T04:58:19.317Z,27.68
2022-12-12T04:58:50.737Z,27.69
2022-12-12T04:59:22.184Z,27.78
2022-12-12T04:59:53.550Z,27.68
2022-12-12T05:00:25.004Z,27.77
2022-12-12T05:00:56.629Z,27.72
2022-12-12T05:01:28.254Z,27.77
2022-12-12T05:01:59.705Z,27.80
2022-12-12T05:02:31.220Z,27.63
2022-12-12T05:03:02.655Z,27.69
2022-12-12T05:03:34.042Z,27.76
2022-12-12T05:04:05.449Z,27.73
2022-12-12T05:04:36.829Z,27.55
2022-12-12T05:05:08.278Z,27.64
2022-12-12T05:05:39.681Z,27.73
2022-12-12T05:06:11.046Z,27.67
2022-12-12T05:06:42.435Z,27.68
2022-12-12T05:07:13.819Z,27.53
2022-12-12T05:07:45.327Z,27.76
2022-12-12T05:08:16.816Z,27.69
2022-12-12T05:08:48.352Z,27.67
2022-12-12T05:09:19.700Z,27.84
2022-12-12T05:09:51.094Z,27.69
2022-12-12T05:10:22.551Z,27.72
2022-12-12T05:10:53.989Z,27.71
2022-12-12T05:11:25.405Z,27.79
2022-12-12T05:11:56.797Z,27.78
2022-12-12T05:12:28.165Z,27.76
2022-12-12T05:12:59.541Z,27.68
2022-12-12T05:13:30.930Z,27.68
2022-12-12T05:14:02.339Z,27.74
2022-12-12T05:14:33.712Z,27.71
2022-12-12T05:15:05.105Z,27.83
2022-12-12T05:15:39.185Z,27.81
2022-12-12T05:16:14.861Z,27.72
2022-12-12T05:16:46.356Z,27.76
2022-12-12T05:17:17.795Z,27.90
2022-12-12T05:17:49.171Z,27.67
2022-12-12T05:18:20.564Z,27.71
2022-12-12T05:18:51.937Z,27.59
2022-12-12T05:19:23.361Z,27.79
2022-12-12T05:19:54.792Z,27.61
2022-12-12T05:20:26.213Z,27.84
2022-12-12T05:20:57.673Z,27.81
2022-12-12T05:21:29.176Z,27.81
2022-12-12T05:22:00.648Z,27.81
2022-12-12T05:22:32.078Z,27.66
2022-12-12T05:23:03.486Z,27.67
2022-12-12T05:23:35.137Z,27.74
2022-12-12T05:24:06.557Z,27.69
2022-12-12T05:24:37.977Z,27.88
2022-12-12T05:25:09.326Z,27.73
2022-12-12T05:25:40.688Z,27.78
2022-12-12T05:26:12.095Z,27.77
2022-12-12T05:26:43.541Z,27.72
2022-12-12T05:27:14.910Z,27.68
2022-12-12T05:27:46.298Z,27.60
2022-12-12T05:28:17.700Z,27.72
2022-12-12T05:28:49.016Z,27.87
2022-12-12T05:29:20.398Z,27.75
2022-12-12T05:29:51.756Z,27.90
2022-12-12T05:30:23.176Z,27.83
2022-12-12T05:30:54.612Z,27.74
2022-12-12T05:31:26.035Z,27.75
2022-12-12T05:31:57.491Z,27.87
2022-12-12T05:32:28.896Z,27.95
2022-12-12T05:33:00.313Z,27.98
2022-12-12T05:33:31.768Z,28.00
2022-12-12T05:34:03.146Z,28.04
2022-12-12T05:34:34.519Z,28.02
2022-12-12T05:35:05.965Z,28.07
2022-12-12T05:35:37.349Z,28.06
2022-12-12T05:36:08.706Z,28.02
2022-12-12T05:36:40.074Z,27.99
2022-12-12T05:37:11.503Z,27.98
2022-12-12T05:37:45.502Z,28.07
2022-12-12T05:38:21.292Z,28.06
2022-12-12T05:38:52.683Z,28.10
2022-12-12T05:39:24.100Z,28.04
2022-12-12T05:39:55.541Z,28.11
2022-12-12T05:40:26.958Z,28.09
2022-12-12T05:40:58.335Z,28.04
2022-12-12T05:41:29.722Z,28.12
2022-12-12T05:42:01.113Z,28.13
2022-12-12T05:42:32.596Z,28.13
2022-12-12T05:43:03.981Z,28.11
2022-12-12T05:43:35.430Z,28.07
2022-12-12T05:44:06.836Z,28.07
2022-12-12T05:44:38.191Z,28.16
2022-12-12T05:45:09.760Z,28.03
2022-12-12T05:45:41.336Z,28.26
2022-12-12T05:46:12.804Z,28.11
2022-12-12T05:46:44.241Z,28.23
2022-12-12T05:47:15.678Z,28.21
2022-12-12T05:47:47.130Z,28.08
2022-12-12T05:48:24.163Z,28.12
2022-12-12T05:48:55.969Z,28.10
2022-12-12T05:49:27.368Z,28.20
2022-12-12T05:49:58.739Z,28.08
2022-12-12T05:50:30.138Z,28.09
2022-12-12T05:51:01.513Z,28.12
2022-12-12T05:51:32.932Z,28.16
2022-12-12T05:52:04.285Z,28.06
2022-12-12T05:52:35.645Z,28.19
2022-12-12T05:53:07.116Z,27.95
2022-12-12T05:53:42.771Z,28.02
2022-12-12T05:54:14.651Z,28.17
2022-12-12T05:54:46.108Z,28.03
2022-12-12T05:55:17.524Z,28.20
2022-12-12T05:55:48.913Z,28.24
2022-12-12T05:56:20.333Z,28.03
2022-12-12T05:56:51.704Z,28.07
2022-12-12T05:57:23.041Z,28.23
2022-12-12T05:57:54.411Z,28.09
2022-12-12T05:58:25.904Z,28.16
2022-12-12T05:58:57.370Z,28.12
2022-12-12T05:59:28.768Z,28.19
2022-12-12T06:00:00.213Z,28.13
2022-12-12T06:00:31.606Z,28.11
2022-12-12T06:01:03.488Z,28.13
2022-12-12T06:01:34.987Z,28.15
2022-12-12T06:02:37.887Z,28.00
2022-12-12T06:03:09.383Z,28.01
2022-12-12T06:03:40.847Z,28.09
2022-12-12T06:04:12.318Z,28.11
2022-12-12T06:04:43.753Z,28.03
2022-12-12T06:05:15.511Z,28.13
2022-12-12T06:05:47.016Z,28.09
2022-12-12T06:06:18.384Z,28.10
2022-12-12T06:07:21.227Z,28.11
2022-12-12T06:07:52.693Z,28.14
2022-12-12T06:08:56.818Z,28.20
2022-12-12T06:09:28.215Z,28.10
2022-12-12T06:09:59.576Z,28.06
2022-12-12T06:10:30.977Z,28.01
2022-12-12T06:11:02.400Z,28.08
2022-12-12T06:11:33.837Z,28.19
2022-12-12T06:12:05.200Z,28.20
2022-12-12T06:12:36.570Z,28.10
2022-12-12T06:13:07.992Z,28.13
2022-12-12T06:13:39.407Z,28.21
2022-12-12T06:14:10.832Z,28.19
2022-12-12T06:14:42.248Z,28.01
2022-12-12T06:15:13.796Z,28.21
2022-12-12T06:15:45.478Z,28.06
2022-12-12T06:16:16.942Z,28.08
2022-12-12T06:16:48.328Z,28.23
2022-12-12T06:17:19.736Z,28.09
2022-12-12T06:17:51.140Z,28.15
2022-12-12T06:18:22.524Z,28.08
2022-12-12T06:18:53.915Z,28.07
2022-12-12T06:19:25.434Z,28.14
2022-12-12T06:20:28.166Z,28.16
2022-12-12T06:20:59.615Z,28.12
2022-12-12T06:21:31.134Z,28.18
2022-12-12T06:22:02.607Z,28.08
2022-12-12T06:22:33.975Z,28.19
2022-12-12T06:23:05.355Z,28.17
2022-12-12T06:24:08.141Z,28.09
2022-12-12T06:24:39.585Z,28.27
2022-12-12T06:25:11.253Z,28.09
2022-12-12T06:25:42.835Z,28.16
2022-12-12T06:26:14.179Z,28.21
2022-12-12T06:26:45.573Z,28.13
2022-12-12T06:27:16.985Z,28.18
2022-12-12T06:27:48.495Z,28.21
2022-12-12T06:28:19.958Z,28.15
2022-12-12T06:28:51.366Z,28.20
2022-12-12T06:29:22.761Z,28.21
2022-12-12T06:29:54.249Z,28.16
2022-12-12T06:30:25.634Z,28.12
2022-12-12T06:30:57.102Z,28.18
2022-12-12T06:31:28.591Z,28.17
2022-12-12T06:32:00.031Z,28.10
2022-12-12T06:32:31.416Z,28.16
2022-12-12T06:33:02.757Z,28.25
2022-12-12T06:33:34.148Z,28.11
2022-12-12T06:34:05.512Z,28.20
2022-12-12T06:34:36.869Z,28.10
2022-12-12T06:35:08.352Z,27.99
2022-12-12T06:35:39.745Z,28.14
2022-12-12T06:36:11.131Z,28.12
2022-12-12T06:36:42.550Z,28.09
2022-12-12T06:37:17.240Z,28.11
2022-12-12T06:37:48.947Z,28.13
2022-12-12T06:38:20.284Z,28.29
2022-12-12T06:38:51.706Z,28.08
2022-12-12T06:39:23.063Z,28.04
2022-12-12T06:39:54.450Z,28.08
2022-12-12T06:40:25.953Z,28.19
2022-12-12T06:40:57.338Z,28.12
2022-12-12T06:41:28.736Z,28.20
2022-12-12T06:42:00.333Z,28.04
2022-12-12T06:42:31.744Z,28.28
2022-12-12T06:43:03.168Z,28.19
2022-12-12T06:43:34.610Z,28.19
2022-12-12T06:44:06.018Z,28.00
2022-12-12T06:44:37.406Z,28.19
2022-12-12T06:45:08.867Z,28.02
2022-12-12T06:45:40.373Z,28.15
2022-12-12T06:46:11.794Z,27.97
2022-12-12T06:46:43.232Z,28.09
2022-12-12T06:47:14.682Z,28.13
2022-12-12T06:47:46.162Z,28.11
2022-12-12T06:48:17.539Z,28.08
2022-12-12T06:48:48.924Z,28.26
2022-12-12T06:49:20.327Z,28.09
2022-12-12T06:49:51.724Z,27.98
2022-12-12T06:50:24.001Z,27.98
2022-12-12T06:50:55.559Z,28.16
2022-12-12T06:51:27.063Z,28.21
2022-12-12T06:51:58.422Z,28.17
2022-12-12T06:52:29.850Z,28.10
2022-12-12T06:53:01.306Z,28.28
2022-12-12T06:53:32.661Z,28.01
2022-12-12T06:54:04.022Z,28.07
2022-12-12T06:54:35.426Z,28.18
2022-12-12T06:55:06.941Z,28.10
2022-12-12T06:55:38.360Z,28.02
2022-12-12T06:56:09.780Z,28.12
2022-12-12T06:56:47.726Z,28.20
2022-12-12T06:57:19.796Z,28.28
2022-12-12T06:57:51.188Z,28.21
2022-12-12T06:58:22.670Z,28.10
2022-12-12T06:58:54.051Z,28.33
2022-12-12T06:59:25.458Z,28.27
2022-12-12T06:59:56.851Z,28.00
2022-12-12T07:00:28.219Z,28.29
2022-12-12T07:00:59.593Z,28.16
2022-12-12T07:01:31.084Z,28.13
2022-12-12T07:02:02.698Z,28.07
2022-12-12T07:02:34.204Z,28.23
2022-12-12T07:03:05.625Z,28.26
2022-12-12T07:04:08.420Z,28.15
2022-12-12T07:04:39.901Z,28.16
2022-12-12T07:05:11.509Z,28.24
2022-12-12T07:05:43.079Z,28.00
2022-12-12T07:06:14.449Z,28.22
2022-12-12T07:06:45.867Z,28.00
2022-12-12T07:07:17.314Z,28.18
2022-12-12T07:07:48.734Z,28.15
2022-12-12T07:08:20.301Z,28.07
2022-12-12T07:08:51.763Z,28.10
2022-12-12T07:09:23.196Z,28.04
2022-12-12T07:09:54.603Z,28.05
2022-12-12T07:10:25.964Z,27.79
2022-12-12T07:10:57.363Z,27.98
2022-12-12T07:11:28.769Z,27.85
2022-12-12T07:12:00.235Z,27.85
2022-12-12T07:12:31.615Z,27.93
2022-12-12T07:13:03.012Z,27.81
2022-12-12T07:13:34.667Z,27.85
2022-12-12T07:14:06.057Z,27.83
2022-12-12T07:14:37.511Z,27.79
2022-12-12T07:15:08.917Z,27.78
2022-12-12T07:15:40.335Z,27.86
2022-12-12T07:16:11.798Z,27.80
2022-12-12T07:16:43.230Z,27.69
2022-12-12T07:17:14.765Z,27.83
2022-12-12T07:17:46.122Z,27.78
2022-12-12T07:18:17.525Z,27.76
2022-12-12T07:18:48.921Z,27.78
2022-12-12T07:19:20.297Z,27.78
2022-12-12T07:19:51.700Z,27.76
2022-12-12T07:20:23.074Z,27.75
2022-12-12T07:20:54.472Z,27.76
2022-12-12T07:21:25.891Z,27.74
2022-12-12T07:21:57.300Z,27.85
2022-12-12T07:22:28.786Z,27.73
2022-12-12T07:23:00.158Z,27.68
2022-12-12T07:23:31.541Z,27.75
2022-12-12T07:24:03.000Z,27.75
2022-12-12T07:24:34.393Z,27.89
2022-12-12T07:25:05.757Z,27.86
2022-12-12T07:25:37.146Z,27.69
2022-12-12T07:26:08.508Z,27.78
2022-12-12T07:26:39.912Z,27.62
2022-12-12T07:27:11.297Z,27.79
2022-12-12T07:28:30.940Z,27.85
2022-12-12T07:29:17.147Z,27.94
2022-12-12T07:30:10.475Z,27.86
2022-12-12T07:30:58.057Z,27.88
2022-12-12T07:31:46.370Z,27.73
2022-12-12T07:32:37.673Z,27.78
2022-12-12T07:33:39.551Z,27.96
2022-12-12T07:34:36.729Z,27.79
2022-12-12T07:35:25.243Z,27.92
2022-12-12T07:36:17.506Z,27.90
2022-12-12T07:37:06.543Z,27.75
2022-12-12T07:38:00.344Z,27.81
2022-12-12T07:38:55.974Z,27.86
2022-12-12T07:39:43.000Z,27.69
2022-12-12T07:40:31.972Z,27.81
2022-12-12T07:41:23.305Z,27.76
2022-12-12T07:42:11.214Z,27.88
2022-12-12T07:42:58.886Z,27.68
2022-12-12T07:43:46.076Z,27.84
2022-12-12T07:44:36.344Z,27.66
2022-12-12T07:45:22.554Z,27.78
2022-12-12T07:46:09.334Z,27.69
2022-12-12T07:46:59.738Z,27.86
2022-12-12T07:47:46.406Z,27.77
2022-12-12T07:48:32.448Z,27.77
2022-12-12T07:49:25.055Z,27.79
2022-12-12T07:50:15.715Z,27.89
2022-12-12T07:51:00.967Z,27.80
2022-12-12T07:51:51.255Z,27.71
2022-12-12T07:52:40.814Z,27.74
2022-12-12T07:53:30.314Z,27.73
2022-12-12T07:54:24.006Z,27.82
2022-12-12T07:55:15.216Z,27.72
2022-12-12T07:56:02.757Z,27.96
2022-12-12T07:56:52.948Z,27.70
2022-12-12T07:57:44.545Z,27.81
2022-12-12T07:58:35.505Z,27.92
2022-12-12T07:59:29.853Z,27.78
2022-12-12T08:00:20.037Z,27.77
2022-12-12T08:01:08.695Z,27.75
2022-12-12T08:01:58.508Z,27.91
2022-12-12T08:02:47.721Z,27.75
2022-12-12T08:03:40.452Z,27.82
2022-12-12T08:04:31.773Z,27.76
2022-12-12T08:05:24.431Z,27.81
2022-12-12T08:06:09.018Z,27.78
2022-12-12T08:07:04.023Z,27.88
2022-12-12T08:07:52.033Z,27.77
2022-12-12T08:08:42.136Z,27.77
2022-12-12T08:09:32.444Z,27.92
2022-12-12T08:10:19.436Z,27.83
2022-12-12T08:11:07.929Z,27.78
2022-12-12T08:11:59.379Z,27.83
2022-12-12T08:12:48.439Z,27.62
2022-12-12T08:13:35.713Z,27.72
2022-12-12T08:14:20.652Z,27.80
2022-12-12T08:15:09.369Z,27.90
2022-12-12T08:15:56.654Z,27.73
2022-12-12T08:16:49.600Z,27.78